Cape Hatteras National Seash, North Carolina
Current Conditions -  °F | °C
As of 9:15 AM on Thursday 23 Oct 2014 (Local Time) from KMQI Reporting Station
Overcast Overcast  
Wind Chill: 54°   Ceiling: 3800
Heat Index: 54°   Visibility: 10mi
Dew Point: 45°   Wind: 16mph
Humidity: 71%   Direction: 320°NW
Pressure: 29.91"   Gusts: 26mph
Location:  35.8834°N, 75.6616°W
Report Text: KMQI 231315Z AUTO 32014G23KT 270V340 10SM OVC038 12/07 A2991 RMK AO2 T01230072
Loading
Personal Weather Stations






























Interactive Weather Map
Tropical Storm Tracking
New forecast layout! Learn more

10-Day Weather Forecast

Advertisements
Track Severe Weather on mobile